!!! Benutzen Sie für Ihre Flugvorbereitung die offiziellen Quellen !!!

Metar:

EDQM 270820Z 21009KT 9999 OVC008 14/12 Q1011

QNH: 1011
Temperatur: 14
Dew Point : 12

 

METAR (decoded)